createdAt,value
2018-07-22T00:00:55.964Z,77.60
2018-07-22T00:03:25.296Z,77.21
2018-07-22T00:05:54.162Z,77.61
2018-07-22T00:08:23.426Z,77.74
2018-07-22T00:10:52.648Z,77.86
2018-07-22T00:13:21.606Z,78.05
2018-07-22T00:15:50.242Z,78.23
2018-07-22T00:18:18.910Z,77.72
2018-07-22T00:20:47.872Z,77.92
2018-07-22T00:23:17.234Z,77.87
2018-07-22T00:25:46.385Z,77.71
2018-07-22T00:28:15.337Z,78.41
2018-07-22T00:30:44.164Z,78.37
2018-07-22T00:33:12.865Z,78.53
2018-07-22T00:35:41.723Z,78.88
2018-07-22T00:38:10.561Z,78.01
2018-07-22T00:40:39.197Z,78.83
2018-07-22T00:43:08.172Z,78.69
2018-07-22T00:45:37.611Z,78.74
2018-07-22T00:48:06.273Z,78.29
2018-07-22T00:50:34.934Z,78.76
2018-07-22T00:53:03.640Z,78.58
2018-07-22T00:55:32.279Z,77.90
2018-07-22T00:58:00.979Z,78.41
2018-07-22T01:00:29.777Z,77.66
2018-07-22T01:02:58.458Z,78.89
2018-07-22T01:05:27.297Z,77.74
2018-07-22T01:07:56.159Z,77.51
2018-07-22T01:10:24.848Z,77.24
2018-07-22T01:12:53.569Z,77.70
2018-07-22T01:15:22.270Z,77.80
2018-07-22T01:17:51.098Z,77.87
2018-07-22T01:20:20.646Z,78.14
2018-07-22T01:22:49.310Z,77.75
2018-07-22T01:25:18.158Z,77.80
2018-07-22T01:27:46.821Z,77.59
2018-07-22T01:30:15.576Z,77.87
2018-07-22T01:32:44.988Z,78.19
2018-07-22T01:35:14.350Z,78.08
2018-07-22T01:37:43.410Z,77.99
2018-07-22T01:40:12.712Z,78.21
2018-07-22T01:42:42.008Z,78.60
2018-07-22T01:45:10.635Z,78.04
2018-07-22T01:47:39.301Z,78.24
2018-07-22T01:50:08.153Z,77.87
2018-07-22T01:52:36.886Z,77.95
2018-07-22T01:55:06.153Z,78.09
2018-07-22T01:57:34.789Z,78.32
2018-07-22T02:00:03.564Z,77.84
2018-07-22T02:02:32.156Z,78.13
2018-07-22T02:05:00.826Z,78.68
2018-07-22T02:07:29.809Z,77.97
2018-07-22T02:09:58.560Z,78.50
2018-07-22T02:12:27.190Z,78.02
2018-07-22T02:14:55.850Z,78.50
2018-07-22T02:17:24.505Z,78.28
2018-07-22T02:19:53.718Z,78.41
2018-07-22T02:22:22.403Z,78.75
2018-07-22T02:24:50.972Z,78.76
2018-07-22T02:27:19.800Z,78.66
2018-07-22T02:29:48.448Z,78.31
2018-07-22T02:32:17.118Z,78.57
2018-07-22T02:34:45.816Z,78.28
2018-07-22T02:37:14.539Z,78.67
2018-07-22T02:39:43.183Z,78.64
2018-07-22T02:42:11.798Z,78.41
2018-07-22T02:44:40.422Z,78.47
2018-07-22T02:47:09.134Z,78.48
2018-07-22T02:49:37.785Z,78.39
2018-07-22T02:52:06.714Z,78.53
2018-07-22T02:54:36.136Z,77.91
2018-07-22T02:57:05.090Z,77.93
2018-07-22T02:59:33.762Z,78.09
2018-07-22T03:02:02.476Z,77.98
2018-07-22T03:04:31.204Z,78.10
2018-07-22T03:06:59.785Z,78.08
2018-07-22T03:09:28.389Z,78.53
2018-07-22T03:11:57.009Z,78.36
2018-07-22T03:14:25.802Z,78.90
2018-07-22T03:16:55.452Z,79.00
2018-07-22T03:19:24.238Z,78.75
2018-07-22T03:21:53.567Z,79.14
2018-07-22T03:24:22.308Z,78.98
2018-07-22T03:26:51.000Z,79.05
2018-07-22T03:29:19.603Z,78.52
2018-07-22T03:31:48.300Z,78.52
2018-07-22T03:34:16.995Z,78.90
2018-07-22T03:36:45.904Z,78.44
2018-07-22T03:39:14.648Z,78.59
2018-07-22T03:41:43.585Z,78.56
2018-07-22T03:44:12.819Z,78.45
2018-07-22T03:46:42.005Z,78.28
2018-07-22T03:49:10.603Z,78.83
2018-07-22T03:51:39.544Z,78.83
2018-07-22T03:54:08.193Z,78.66
2018-07-22T03:56:36.837Z,78.78
2018-07-22T03:59:05.528Z,79.24
2018-07-22T04:01:34.169Z,78.50
2018-07-22T04:04:02.815Z,78.70
2018-07-22T04:06:31.528Z,78.69
2018-07-22T04:09:00.085Z,78.63
2018-07-22T04:11:28.746Z,78.65
2018-07-22T04:13:57.383Z,78.51
2018-07-22T04:16:26.026Z,78.88
2018-07-22T04:18:55.089Z,78.87
2018-07-22T04:21:24.795Z,78.74
2018-07-22T04:23:53.584Z,79.53
2018-07-22T04:26:22.657Z,79.81
2018-07-22T04:28:51.778Z,79.51
2018-07-22T04:31:20.653Z,79.64
2018-07-22T04:33:49.674Z,78.99
2018-07-22T04:36:18.905Z,79.09
2018-07-22T04:38:48.096Z,78.71
2018-07-22T04:41:17.426Z,78.87
2018-07-22T04:43:46.059Z,78.46
2018-07-22T04:46:14.688Z,78.67
2018-07-22T04:48:43.351Z,79.29
2018-07-22T04:51:12.039Z,79.02
2018-07-22T04:53:40.668Z,79.17
2018-07-22T04:56:09.611Z,79.06
2018-07-22T04:58:38.891Z,78.60
2018-07-22T05:01:07.545Z,79.19
2018-07-22T05:03:36.465Z,78.90
2018-07-22T05:06:05.706Z,78.59
2018-07-22T05:08:34.969Z,78.31
2018-07-22T05:11:03.739Z,78.23
2018-07-22T05:13:32.370Z,77.35
2018-07-22T05:16:01.628Z,77.82
2018-07-22T05:18:30.944Z,78.36
2018-07-22T05:20:59.599Z,77.23
2018-07-22T05:23:28.347Z,77.29
2018-07-22T05:25:57.615Z,76.36
2018-07-22T05:28:26.341Z,77.06
2018-07-22T05:30:55.004Z,76.71
2018-07-22T05:33:23.878Z,76.78
2018-07-22T05:35:52.631Z,77.08
2018-07-22T05:38:21.344Z,76.59
2018-07-22T05:40:50.685Z,76.78
2018-07-22T05:43:19.375Z,75.53
2018-07-22T05:45:48.790Z,75.91
2018-07-22T05:48:17.429Z,76.03
2018-07-22T05:50:46.087Z,76.94
2018-07-22T05:53:15.258Z,77.33
2018-07-22T05:55:43.882Z,77.35
2018-07-22T05:58:12.671Z,77.48
2018-07-22T06:00:41.304Z,76.12
2018-07-22T06:03:09.999Z,77.08
2018-07-22T06:05:38.679Z,77.21
2018-07-22T06:08:07.380Z,77.27
2018-07-22T06:10:36.113Z,76.04
2018-07-22T06:13:04.870Z,74.89
2018-07-22T06:15:33.554Z,73.93
2018-07-22T06:18:02.314Z,73.92
2018-07-22T06:20:31.038Z,72.66
2018-07-22T06:23:00.268Z,73.17
2018-07-22T06:25:28.990Z,72.37
2018-07-22T06:27:57.702Z,72.35
2018-07-22T06:30:26.426Z,72.35
2018-07-22T06:32:55.030Z,71.54
2018-07-22T06:35:24.355Z,72.26
2018-07-22T06:37:53.408Z,72.78
2018-07-22T06:40:22.087Z,71.80
2018-07-22T06:42:50.935Z,71.14
2018-07-22T06:45:19.596Z,70.96
2018-07-22T06:47:48.202Z,70.88
2018-07-22T06:50:16.876Z,71.29
2018-07-22T06:52:45.525Z,68.94
2018-07-22T06:55:14.194Z,68.50
2018-07-22T06:57:42.960Z,70.12
2018-07-22T07:00:11.643Z,69.99
2018-07-22T07:02:40.366Z,69.88
2018-07-22T07:05:09.188Z,69.81
2018-07-22T07:07:38.125Z,70.22
2018-07-22T07:10:07.539Z,70.90
2018-07-22T07:12:36.267Z,68.66
2018-07-22T07:15:06.337Z,69.27
2018-07-22T07:17:35.049Z,69.38
2018-07-22T07:20:03.791Z,68.86
2018-07-22T07:22:32.504Z,69.76
2018-07-22T07:25:01.153Z,68.46
2018-07-22T07:27:29.799Z,68.37
2018-07-22T07:29:58.520Z,68.62
2018-07-22T07:32:27.246Z,67.96
2018-07-22T07:34:55.952Z,67.34
2018-07-22T07:37:26.986Z,66.70
2018-07-22T07:39:55.658Z,64.95
2018-07-22T07:42:24.377Z,64.98
2018-07-22T07:44:56.154Z,64.79
2018-07-22T07:47:25.399Z,64.09
2018-07-22T07:49:54.517Z,64.85
2018-07-22T07:52:24.566Z,64.31
2018-07-22T07:54:53.871Z,64.98
2018-07-22T07:57:23.207Z,64.43
2018-07-22T07:59:54.212Z,63.55
2018-07-22T08:02:24.736Z,64.07
2018-07-22T08:04:53.716Z,63.57
2018-07-22T08:07:23.062Z,62.57
2018-07-22T08:09:53.144Z,62.71
2018-07-22T08:12:22.408Z,62.02
2018-07-22T08:14:51.165Z,61.87
2018-07-22T08:17:19.862Z,61.17
2018-07-22T08:19:48.784Z,61.18
2018-07-22T08:22:17.585Z,61.64
2018-07-22T08:24:46.295Z,61.35
2018-07-22T08:27:14.968Z,61.83
2018-07-22T08:29:44.882Z,60.99
2018-07-22T08:32:14.351Z,61.55
2018-07-22T08:34:43.012Z,60.57
2018-07-22T08:37:11.753Z,63.18
2018-07-22T08:39:40.438Z,61.53
2018-07-22T08:42:09.296Z,62.32
2018-07-22T08:44:38.533Z,62.77
2018-07-22T08:47:07.364Z,61.77
2018-07-22T08:49:37.974Z,62.68
2018-07-22T08:52:07.004Z,62.47
2018-07-22T08:54:36.487Z,62.31
2018-07-22T08:57:05.573Z,61.44
2018-07-22T08:59:34.360Z,61.67
2018-07-22T09:02:03.526Z,62.83
2018-07-22T09:04:33.248Z,62.69
2018-07-22T09:07:02.562Z,62.19
2018-07-22T09:09:31.781Z,61.65
2018-07-22T09:12:00.412Z,60.61
2018-07-22T09:14:29.156Z,61.37
2018-07-22T09:16:57.874Z,60.91
2018-07-22T09:19:26.517Z,61.37
2018-07-22T09:21:55.565Z,60.63
2018-07-22T09:24:24.284Z,58.56
2018-07-22T09:26:53.511Z,58.58
2018-07-22T09:29:22.429Z,58.81
2018-07-22T09:31:51.179Z,56.83
2018-07-22T09:34:19.899Z,55.84
2018-07-22T09:36:48.551Z,56.45
2018-07-22T09:39:17.227Z,56.20
2018-07-22T09:41:45.997Z,55.43
2018-07-22T09:44:15.262Z,55.93
2018-07-22T09:46:47.286Z,56.44
2018-07-22T09:49:16.045Z,57.12
2018-07-22T09:51:44.749Z,57.36
2018-07-22T09:54:14.591Z,56.75
2018-07-22T09:56:43.340Z,54.71
2018-07-22T09:59:12.714Z,56.93
2018-07-22T10:01:41.855Z,55.34
2018-07-22T10:04:10.826Z,54.69
2018-07-22T10:06:40.053Z,54.65
2018-07-22T10:09:10.609Z,54.41
2018-07-22T10:11:39.277Z,53.16
2018-07-22T10:14:08.044Z,53.18
2018-07-22T10:16:36.737Z,52.89
2018-07-22T10:19:05.555Z,53.42
2018-07-22T10:21:34.816Z,53.73
2018-07-22T10:24:03.899Z,52.87
2018-07-22T10:26:33.192Z,52.54
2018-07-22T10:29:02.294Z,53.12
2018-07-22T10:31:31.654Z,53.40
2018-07-22T10:34:00.665Z,53.11
2018-07-22T10:36:32.229Z,53.05
2018-07-22T10:39:01.324Z,53.58
2018-07-22T10:41:30.583Z,54.91
2018-07-22T10:44:03.500Z,53.29
2018-07-22T10:46:32.541Z,54.01
2018-07-22T10:49:01.503Z,55.04
2018-07-22T10:51:31.328Z,55.28
2018-07-22T10:54:02.796Z,54.71
2018-07-22T10:56:31.678Z,54.14
2018-07-22T10:59:00.611Z,52.03
2018-07-22T11:01:29.491Z,50.20
2018-07-22T11:03:58.539Z,51.37
2018-07-22T11:06:27.510Z,53.55
2018-07-22T11:08:56.775Z,53.87
2018-07-22T11:11:26.028Z,53.56
2018-07-22T11:13:54.911Z,53.30
2018-07-22T11:16:24.231Z,53.98
2018-07-22T11:18:52.967Z,53.85
2018-07-22T11:21:22.110Z,54.93
2018-07-22T11:23:51.107Z,55.09
2018-07-22T11:26:19.937Z,56.02
2018-07-22T11:28:48.706Z,56.58
2018-07-22T11:31:17.501Z,56.16
2018-07-22T11:33:48.430Z,56.34
2018-07-22T11:36:17.366Z,57.01
2018-07-22T11:38:46.197Z,57.02
2018-07-22T11:41:15.834Z,57.51
2018-07-22T11:43:45.213Z,57.86
2018-07-22T11:46:16.908Z,58.52
2018-07-22T11:48:45.754Z,59.08
2018-07-22T11:51:20.489Z,58.86
2018-07-22T11:53:49.184Z,57.52
2018-07-22T11:56:17.910Z,57.60
2018-07-22T11:58:46.648Z,57.35
2018-07-22T12:01:15.397Z,57.76
2018-07-22T12:03:44.497Z,57.11
2018-07-22T12:06:13.317Z,57.63
2018-07-22T12:08:42.273Z,59.64
2018-07-22T12:11:11.453Z,59.32
2018-07-22T12:13:40.234Z,58.96
2018-07-22T12:16:08.910Z,59.73
2018-07-22T12:18:37.628Z,59.75
2018-07-22T12:21:06.469Z,60.02
2018-07-22T12:23:41.763Z,58.84
2018-07-22T12:26:10.741Z,57.78
2018-07-22T12:28:39.519Z,58.54
2018-07-22T12:31:08.454Z,59.92
2018-07-22T12:33:37.404Z,59.33
2018-07-22T12:36:06.861Z,57.60
2018-07-22T12:38:36.047Z,54.54
2018-07-22T12:41:04.727Z,55.42
2018-07-22T12:43:33.508Z,53.93
2018-07-22T12:46:02.308Z,52.87
2018-07-22T12:48:31.012Z,53.46
2018-07-22T12:51:00.249Z,52.69
2018-07-22T12:53:29.506Z,52.80
2018-07-22T12:55:59.184Z,51.35
2018-07-22T12:58:28.224Z,50.57
2018-07-22T13:00:57.045Z,48.89
2018-07-22T13:03:27.211Z,49.32
2018-07-22T13:05:56.659Z,50.54
2018-07-22T13:08:25.526Z,51.25
2018-07-22T13:10:54.163Z,49.88
2018-07-22T13:13:22.929Z,49.89
2018-07-22T13:15:51.668Z,49.80
2018-07-22T13:18:20.461Z,51.37
2018-07-22T13:20:49.210Z,53.33
2018-07-22T13:26:47.583Z,54.01
2018-07-22T13:29:25.491Z,53.28
2018-07-22T13:39:43.900Z,51.20
2018-07-22T13:42:30.247Z,50.50
2018-07-22T13:45:14.135Z,49.80
2018-07-22T13:56:48.040Z,49.69
2018-07-22T14:09:26.331Z,54.82
2018-07-22T14:11:55.847Z,65.04
2018-07-22T14:14:24.595Z,65.31
2018-07-22T14:16:53.663Z,65.09
2018-07-22T14:19:22.981Z,65.55
2018-07-22T14:21:51.757Z,66.99
2018-07-22T14:24:21.348Z,67.53
2018-07-22T14:26:50.359Z,66.89
2018-07-22T14:29:19.483Z,66.69
2018-07-22T14:31:48.342Z,66.63
2018-07-22T14:34:17.130Z,65.61
2018-07-22T14:36:45.860Z,65.28
2018-07-22T14:39:15.241Z,66.90
2018-07-22T14:41:44.124Z,67.92
2018-07-22T14:44:12.910Z,66.54
2018-07-22T14:46:41.767Z,68.58
2018-07-22T14:49:10.526Z,67.71
2018-07-22T14:51:39.429Z,66.15
2018-07-22T14:54:08.943Z,64.89
2018-07-22T14:56:37.878Z,65.29
2018-07-22T14:59:06.776Z,63.75
2018-07-22T15:01:36.435Z,65.94
2018-07-22T15:04:12.659Z,65.28
2018-07-22T15:06:45.270Z,62.50
2018-07-22T15:09:29.932Z,63.68
2018-07-22T15:12:03.211Z,66.24
2018-07-22T15:14:44.352Z,65.76
2018-07-22T15:17:13.241Z,64.27
2018-07-22T15:19:42.488Z,64.09
2018-07-22T15:22:11.754Z,66.19
2018-07-22T15:24:40.604Z,65.97
2018-07-22T15:27:09.336Z,67.33
2018-07-22T15:29:38.158Z,65.37
2018-07-22T15:32:07.396Z,65.67
2018-07-22T15:34:37.101Z,63.69
2018-07-22T15:37:06.546Z,64.61
2018-07-22T15:39:35.318Z,63.01
2018-07-22T15:42:04.066Z,64.29
2018-07-22T15:44:32.865Z,65.32
2018-07-22T15:47:04.461Z,65.51
2018-07-22T15:49:33.681Z,66.79
2018-07-22T15:52:02.893Z,63.85
2018-07-22T15:54:31.952Z,64.70
2018-07-22T15:57:00.700Z,64.35
2018-07-22T15:59:29.501Z,67.76
2018-07-22T16:01:58.737Z,66.03
2018-07-22T16:04:28.095Z,67.09
2018-07-22T16:06:57.065Z,68.16
2018-07-22T16:09:25.840Z,66.99
2018-07-22T16:11:54.965Z,70.61
2018-07-22T16:14:23.800Z,69.85
2018-07-22T16:16:52.859Z,70.26
2018-07-22T16:19:22.617Z,70.39
2018-07-22T16:21:52.844Z,73.76
2018-07-22T16:24:21.806Z,71.05
2018-07-22T16:26:50.616Z,70.83
2018-07-22T16:29:19.502Z,70.36
2018-07-22T16:31:48.725Z,69.79
2018-07-22T16:34:17.775Z,69.34
2018-07-22T16:36:47.312Z,69.24
2018-07-22T16:39:16.849Z,70.61
2018-07-22T16:41:45.590Z,70.30
2018-07-22T16:44:14.427Z,70.90
2018-07-22T16:46:43.335Z,72.36
2018-07-22T16:49:12.063Z,71.38
2018-07-22T16:51:40.741Z,70.89
2018-07-22T16:54:10.788Z,71.34
2018-07-22T16:56:40.260Z,71.59
2018-07-22T16:59:18.218Z,70.64
2018-07-22T17:01:47.742Z,70.24
2018-07-22T17:04:16.499Z,69.69
2018-07-22T17:06:53.189Z,70.28
2018-07-22T17:09:22.696Z,70.54
2018-07-22T17:11:53.472Z,71.37
2018-07-22T17:14:22.441Z,71.57
2018-07-22T17:16:56.710Z,70.77
2018-07-22T17:19:54.588Z,72.82
2018-07-22T17:32:55.314Z,72.98
2018-07-22T17:50:29.359Z,72.05
2018-07-22T17:53:11.146Z,71.26
2018-07-22T17:56:02.536Z,73.12
2018-07-22T17:58:56.826Z,72.99
2018-07-22T18:01:47.813Z,72.56
2018-07-22T18:09:27.757Z,72.47
2018-07-22T18:16:59.248Z,73.07
2018-07-22T18:23:54.824Z,72.24
2018-07-22T18:26:23.957Z,72.29
2018-07-22T18:28:58.516Z,72.81
2018-07-22T18:31:29.419Z,73.25
2018-07-22T18:38:52.306Z,73.18
2018-07-22T18:41:25.976Z,72.68
2018-07-22T18:46:46.049Z,73.63
2018-07-22T18:49:27.132Z,73.21
2018-07-22T18:51:56.116Z,72.95
2018-07-22T18:54:25.707Z,72.81
2018-07-22T18:56:54.937Z,72.61
2018-07-22T19:02:29.824Z,72.58
2018-07-22T19:08:08.964Z,72.58
2018-07-22T19:10:43.260Z,72.85
2018-07-22T19:13:20.351Z,72.95
2018-07-22T19:15:50.691Z,73.12
2018-07-22T19:18:51.487Z,73.13
2018-07-22T19:21:20.746Z,74.61
2018-07-22T19:24:07.279Z,74.45
2018-07-22T19:26:39.423Z,75.59
2018-07-22T19:29:08.522Z,74.71
2018-07-22T19:31:45.956Z,74.41
2018-07-22T19:34:17.428Z,74.70
2018-07-22T19:36:47.172Z,75.54
2018-07-22T19:42:16.484Z,74.34
2018-07-22T19:44:49.012Z,74.14
2018-07-22T19:47:46.780Z,73.61
2018-07-22T19:50:22.213Z,74.47
2018-07-22T19:52:51.948Z,73.68
2018-07-22T19:55:20.936Z,74.70
2018-07-22T19:57:50.483Z,74.51
2018-07-22T20:00:19.613Z,74.03
2018-07-22T20:02:48.608Z,74.25
2018-07-22T20:05:17.613Z,73.79
2018-07-22T20:08:58.338Z,74.24
2018-07-22T20:55:27.287Z,78.45
2018-07-22T20:57:57.419Z,78.20
2018-07-22T21:00:34.608Z,78.04
2018-07-22T21:03:35.557Z,78.28
2018-07-22T21:06:05.055Z,78.13
2018-07-22T21:08:40.008Z,78.39
2018-07-22T21:20:32.911Z,78.51
2018-07-22T21:25:41.233Z,78.17
2018-07-22T21:28:38.440Z,78.16
2018-07-22T21:34:06.899Z,77.87
2018-07-22T21:42:24.499Z,78.68
2018-07-22T22:29:51.773Z,80.15
2018-07-22T22:32:23.967Z,80.58
2018-07-22T22:34:57.846Z,80.28
2018-07-22T22:37:31.000Z,80.20
2018-07-22T22:39:59.814Z,79.90
2018-07-22T22:42:28.512Z,79.54
2018-07-22T22:45:02.698Z,79.52
2018-07-22T22:47:37.130Z,79.05
2018-07-22T22:50:09.791Z,78.80
2018-07-22T22:52:44.067Z,78.59
2018-07-22T22:55:16.125Z,78.57
2018-07-22T22:57:58.047Z,78.15
2018-07-22T23:00:29.448Z,78.50
2018-07-22T23:02:59.232Z,78.60
2018-07-22T23:05:28.014Z,78.19
2018-07-22T23:07:56.851Z,78.07
2018-07-22T23:10:25.774Z,78.24
2018-07-22T23:12:54.462Z,78.32
2018-07-22T23:15:23.048Z,78.61
2018-07-22T23:17:51.758Z,78.33
2018-07-22T23:20:20.402Z,78.22
2018-07-22T23:22:49.085Z,77.99
2018-07-22T23:25:17.693Z,78.32
2018-07-22T23:27:46.303Z,78.12
2018-07-22T23:30:14.875Z,77.96
2018-07-22T23:32:43.466Z,77.80
2018-07-22T23:35:12.098Z,77.82
2018-07-22T23:37:40.707Z,77.62
2018-07-22T23:40:10.169Z,77.66
2018-07-22T23:42:38.775Z,77.88
2018-07-22T23:45:07.373Z,78.48
2018-07-22T23:47:37.549Z,78.60
2018-07-22T23:50:06.898Z,78.06
2018-07-22T23:52:35.888Z,78.48
2018-07-22T23:55:04.568Z,78.19
2018-07-22T23:57:33.271Z,78.29
